createdAt,value
2018-10-05T00:03:16.410Z,93.40
2018-10-05T00:08:19.685Z,93.30
2018-10-05T00:13:22.663Z,93.40
2018-10-05T00:18:25.660Z,93.70
2018-10-05T00:23:28.696Z,94.20
2018-10-05T00:28:31.929Z,94.70
2018-10-05T00:33:34.877Z,95.00
2018-10-05T00:38:37.880Z,95.90
2018-10-05T00:43:41.293Z,96.60
2018-10-05T00:48:45.010Z,96.90
2018-10-05T00:53:47.987Z,97.40
2018-10-05T00:58:50.947Z,97.80
2018-10-05T01:03:53.976Z,97.70
2018-10-05T01:08:56.994Z,97.80
2018-10-05T01:13:59.979Z,98.30
2018-10-05T01:19:04.325Z,98.60
2018-10-05T01:24:07.338Z,98.70
2018-10-05T01:29:10.383Z,98.70
2018-10-05T01:34:13.357Z,99.10
2018-10-05T01:39:16.352Z,99.30
2018-10-05T01:44:19.389Z,99.30
2018-10-05T01:49:22.368Z,99.80
2018-10-05T01:54:25.443Z,99.90
2018-10-05T01:59:28.497Z,99.40
2018-10-05T02:04:31.495Z,99.30
2018-10-05T02:09:34.527Z,99.80
2018-10-05T02:14:37.511Z,99.70
2018-10-05T02:19:40.517Z,99.50
2018-10-05T02:24:43.565Z,98.90
2018-10-05T02:29:46.592Z,99.40
2018-10-05T02:34:50.145Z,98.40
2018-10-05T02:39:54.485Z,98.60
2018-10-05T02:44:57.568Z,98.60
2018-10-05T02:50:03.239Z,98.70
2018-10-05T02:55:06.295Z,99.00
2018-10-05T03:00:26.817Z,99.10
2018-10-05T03:05:29.819Z,99.20
2018-10-05T03:10:32.922Z,99.90
2018-10-05T03:15:35.991Z,99.90
2018-10-05T03:20:39.074Z,99.90
2018-10-05T03:25:42.144Z,99.90
2018-10-05T03:30:45.126Z,99.90
2018-10-05T03:35:48.088Z,99.90
2018-10-05T03:40:51.124Z,99.90
2018-10-05T03:45:54.160Z,99.90
2018-10-05T03:50:57.149Z,99.90
2018-10-05T03:56:01.557Z,99.90
2018-10-05T04:01:04.568Z,99.90
2018-10-05T04:06:07.542Z,99.90
2018-10-05T04:11:10.526Z,99.90
2018-10-05T04:16:13.546Z,99.90
2018-10-05T04:21:16.728Z,99.90
2018-10-05T04:26:19.757Z,99.90
2018-10-05T04:31:22.812Z,99.90
2018-10-05T04:36:26.129Z,99.90
2018-10-05T04:41:29.117Z,99.90
2018-10-05T04:46:32.115Z,99.90
2018-10-05T04:51:35.064Z,99.90
2018-10-05T04:56:38.042Z,99.90
2018-10-05T05:01:41.043Z,99.90
2018-10-05T05:06:44.070Z,99.90
2018-10-05T05:11:47.168Z,99.90
2018-10-05T05:16:50.115Z,99.90
2018-10-05T05:21:53.205Z,99.90
2018-10-05T05:26:56.219Z,99.90
2018-10-05T05:31:59.189Z,99.90
2018-10-05T05:37:03.428Z,99.90
2018-10-05T05:42:06.651Z,99.90
2018-10-05T05:47:09.631Z,99.90
2018-10-05T05:52:12.627Z,99.90
2018-10-05T05:57:15.752Z,99.60
2018-10-05T06:02:18.749Z,99.40
2018-10-05T06:07:21.694Z,97.60
2018-10-05T06:12:24.710Z,90.70
2018-10-05T06:17:27.728Z,86.20
2018-10-05T06:22:30.882Z,83.20
2018-10-05T06:27:33.701Z,81.40
2018-10-05T06:32:36.745Z,80.40
2018-10-05T06:37:39.740Z,79.50
2018-10-05T06:42:43.240Z,76.00
2018-10-05T06:47:46.448Z,74.70
2018-10-05T06:52:49.608Z,74.10
2018-10-05T06:57:52.580Z,75.40
2018-10-05T07:02:55.555Z,76.00
2018-10-05T07:07:58.517Z,76.40
2018-10-05T07:13:03.493Z,76.30
2018-10-05T07:18:06.507Z,73.70
2018-10-05T07:23:10.357Z,74.40
2018-10-05T07:28:13.431Z,74.50
2018-10-05T07:33:16.281Z,74.60
2018-10-05T07:38:19.253Z,73.70
2018-10-05T07:43:22.232Z,72.60
2018-10-05T07:48:25.208Z,74.50
2018-10-05T07:53:28.323Z,72.90
2018-10-05T07:58:31.355Z,74.40
2018-10-05T08:03:34.383Z,73.80
2018-10-05T08:08:37.397Z,72.40
2018-10-05T08:13:40.416Z,68.00
2018-10-05T08:18:43.404Z,69.20
2018-10-05T08:23:46.628Z,66.50
2018-10-05T08:28:49.647Z,66.50
2018-10-05T08:33:52.675Z,66.40
2018-10-05T08:38:55.768Z,67.60
2018-10-05T08:43:58.763Z,67.40
2018-10-05T08:49:03.699Z,67.30
2018-10-05T08:54:07.251Z,67.70
2018-10-05T08:59:10.323Z,66.80
2018-10-05T09:04:13.515Z,66.20
2018-10-05T09:09:16.505Z,66.60
2018-10-05T09:14:19.544Z,67.10
2018-10-05T09:19:22.637Z,67.00
2018-10-05T09:24:25.609Z,66.60
2018-10-05T09:29:28.556Z,66.40
2018-10-05T09:34:31.552Z,65.60
2018-10-05T09:39:34.575Z,65.10
2018-10-05T09:44:37.596Z,64.40
2018-10-05T09:49:40.743Z,63.90
2018-10-05T09:54:43.873Z,62.40
2018-10-05T09:59:46.861Z,62.10
2018-10-05T10:04:49.846Z,62.70
2018-10-05T10:09:52.937Z,60.60
2018-10-05T10:14:56.880Z,59.90
2018-10-05T10:19:59.891Z,59.40
2018-10-05T10:25:05.038Z,59.00
2018-10-05T10:30:08.582Z,57.70
2018-10-05T10:35:11.575Z,57.70
2018-10-05T10:40:14.659Z,58.50
2018-10-05T10:45:17.656Z,57.40
2018-10-05T10:50:21.603Z,56.70
2018-10-05T10:55:24.676Z,56.50
2018-10-05T11:00:27.680Z,56.40
2018-10-05T11:05:30.744Z,55.70
2018-10-05T11:10:33.755Z,55.10
2018-10-05T11:15:36.881Z,55.10
2018-10-05T11:20:39.908Z,54.20
2018-10-05T11:25:43.084Z,53.80
2018-10-05T11:30:46.092Z,54.50
2018-10-05T11:35:49.133Z,53.70
2018-10-05T11:40:52.257Z,53.10
2018-10-05T11:45:55.186Z,53.10
2018-10-05T11:50:58.549Z,53.00
2018-10-05T11:56:02.841Z,52.70
2018-10-05T12:01:05.959Z,53.60
2018-10-05T12:06:08.963Z,52.30
2018-10-05T12:11:12.224Z,52.20
2018-10-05T12:16:15.350Z,51.50
2018-10-05T12:21:18.336Z,51.00
2018-10-05T12:26:21.541Z,51.10
2018-10-05T12:31:24.556Z,50.60
2018-10-05T12:36:27.667Z,50.40
2018-10-05T12:41:30.705Z,50.60
2018-10-05T12:46:33.768Z,50.40
2018-10-05T12:51:36.824Z,50.60
2018-10-05T12:56:39.873Z,50.10
2018-10-05T13:01:43.215Z,50.20
2018-10-05T13:06:46.284Z,49.70
2018-10-05T13:11:49.411Z,48.60
2018-10-05T13:16:52.636Z,49.00
2018-10-05T13:21:55.759Z,48.80
2018-10-05T13:26:58.829Z,49.00
2018-10-05T13:32:03.185Z,48.50
2018-10-05T13:37:06.467Z,48.60
2018-10-05T13:42:09.571Z,47.70
2018-10-05T13:47:12.651Z,47.70
2018-10-05T13:52:15.793Z,48.50
2018-10-05T13:57:18.805Z,48.30
2018-10-05T14:02:21.808Z,47.70
2018-10-05T14:07:24.867Z,47.80
2018-10-05T14:12:27.932Z,47.90
2018-10-05T14:17:30.972Z,48.20
2018-10-05T14:22:33.968Z,47.80
2018-10-05T14:27:37.044Z,48.40
2018-10-05T14:32:40.046Z,48.20
2018-10-05T14:37:43.174Z,48.30
2018-10-05T14:42:46.385Z,48.10
2018-10-05T14:47:49.439Z,48.00
2018-10-05T14:52:52.616Z,47.70
2018-10-05T14:57:55.590Z,48.00
2018-10-05T15:02:58.668Z,48.30
2018-10-05T15:08:03.699Z,48.20
2018-10-05T15:13:07.365Z,48.60
2018-10-05T15:18:10.461Z,48.90
2018-10-05T15:23:13.448Z,49.30
2018-10-05T15:28:16.358Z,49.80
2018-10-05T15:33:19.261Z,49.90
2018-10-05T15:38:22.260Z,50.40
2018-10-05T15:43:25.279Z,50.70
2018-10-05T15:48:28.227Z,50.80
2018-10-05T15:53:31.796Z,50.80
2018-10-05T15:58:34.763Z,51.70
2018-10-05T16:03:37.900Z,52.40
2018-10-05T16:08:40.926Z,52.40
2018-10-05T16:13:43.975Z,52.50
2018-10-05T16:18:47.064Z,53.50
2018-10-05T16:23:51.299Z,53.30
2018-10-05T16:28:54.247Z,53.70
2018-10-05T16:33:57.191Z,54.00
2018-10-05T16:39:00.092Z,54.40
2018-10-05T16:44:04.755Z,54.80
2018-10-05T16:49:09.347Z,55.30
2018-10-05T16:54:12.501Z,55.30
2018-10-05T16:59:15.417Z,56.90
2018-10-05T17:04:18.462Z,57.90
2018-10-05T17:09:21.500Z,58.40
2018-10-05T17:14:24.498Z,59.20
2018-10-05T17:19:27.544Z,61.20
2018-10-05T17:24:30.476Z,63.40
2018-10-05T17:29:33.669Z,64.50
2018-10-05T17:34:37.051Z,65.90
2018-10-05T17:39:40.544Z,64.60
2018-10-05T17:44:43.669Z,65.50
2018-10-05T17:49:46.806Z,66.90
2018-10-05T17:54:50.005Z,68.50
2018-10-05T17:59:53.011Z,67.80
2018-10-05T18:04:56.253Z,68.40
2018-10-05T18:09:59.332Z,70.30
2018-10-05T18:15:04.386Z,70.30
2018-10-05T18:20:07.896Z,71.00
2018-10-05T18:25:10.960Z,71.10
2018-10-05T18:30:14.163Z,73.50
2018-10-05T18:35:17.270Z,74.10
2018-10-05T18:40:20.378Z,74.30
2018-10-05T18:45:23.664Z,74.90
2018-10-05T18:50:26.729Z,76.90
2018-10-05T18:55:29.804Z,77.70
2018-10-05T19:00:32.970Z,77.70
2018-10-05T19:05:36.057Z,78.50
2018-10-05T19:10:39.432Z,79.40
2018-10-05T19:15:42.740Z,78.70
2018-10-05T19:20:45.933Z,79.50
2018-10-05T19:25:49.104Z,81.30
2018-10-05T19:30:52.240Z,81.50
2018-10-05T19:35:55.413Z,81.70
2018-10-05T19:40:58.395Z,82.10
2018-10-05T19:46:03.242Z,81.00
2018-10-05T19:51:06.367Z,82.30
2018-10-05T19:56:09.716Z,83.40
2018-10-05T20:01:12.743Z,83.30
2018-10-05T20:06:15.945Z,83.80
2018-10-05T20:11:20.126Z,82.60
2018-10-05T20:16:23.310Z,82.60
2018-10-05T20:21:26.390Z,81.90
2018-10-05T20:26:29.512Z,82.30
2018-10-05T20:31:32.744Z,81.90
2018-10-05T20:36:35.852Z,83.30
2018-10-05T20:41:39.001Z,83.70
2018-10-05T20:46:42.268Z,81.80
2018-10-05T20:51:45.292Z,82.80
2018-10-05T20:56:48.820Z,84.90
2018-10-05T21:01:51.808Z,84.80
2018-10-05T21:06:54.956Z,85.70
2018-10-05T21:11:57.930Z,84.30
2018-10-05T21:17:01.787Z,90.00
2018-10-05T21:22:04.957Z,89.90
2018-10-05T21:27:08.026Z,90.60
2018-10-05T21:32:11.441Z,88.90
2018-10-05T21:37:14.480Z,88.90
2018-10-05T21:42:17.603Z,91.90
2018-10-05T21:47:20.669Z,89.90
2018-10-05T21:52:23.694Z,89.00
2018-10-05T21:57:26.742Z,89.70
2018-10-05T22:02:35.158Z,91.70
2018-10-05T22:07:38.557Z,93.80
2018-10-05T22:12:41.905Z,93.10
2018-10-05T22:17:45.380Z,93.20
2018-10-05T22:22:48.849Z,91.10
2018-10-05T22:27:52.206Z,90.80
2018-10-05T22:32:55.358Z,92.90
2018-10-05T22:37:58.384Z,88.60
2018-10-05T22:43:03.443Z,89.90
2018-10-05T22:48:06.706Z,90.90
2018-10-05T22:53:09.700Z,91.10
2018-10-05T22:58:12.893Z,91.50
2018-10-05T23:03:16.485Z,90.80
2018-10-05T23:08:19.525Z,89.20
2018-10-05T23:13:22.996Z,91.00
2018-10-05T23:18:26.201Z,92.00
2018-10-05T23:23:29.332Z,92.30
2018-10-05T23:28:32.456Z,89.60
2018-10-05T23:33:35.916Z,90.40
2018-10-05T23:38:38.935Z,91.10
2018-10-05T23:43:41.924Z,92.00
2018-10-05T23:48:45.052Z,91.30
2018-10-05T23:53:48.488Z,90.10
2018-10-05T23:58:51.441Z,91.30
